Time;durP1;ratioP1;P1;durP2;ratioP2;P2;SDS_P1;SDS_P2;PMS_P1;PMS_P2;Temp;Humidity;BMP_temperature;BMP_pressure;BME280_temperature;BME280_humidity;BME280_pressure;Samples;Min_cycle;Max_cycle;Signal;HPM_P1;HPM_P2
2022/09/19 00:01:19;;;;;;;1.20;1.10;;;23.90;50.20;;;;;;5046503;28;20041;-66
2022/09/19 00:03:52;;;;;;;2.42;1.33;;;23.90;50.30;;;;;;5050607;28;20485;-62
2022/09/19 00:06:20;;;;;;;1.60;1.50;;;23.90;50.20;;;;;;5051416;28;20053;-66
2022/09/19 00:08:48;;;;;;;2.50;1.85;;;23.90;50.20;;;;;;5050728;28;20679;-66
2022/09/19 00:11:19;;;;;;;1.55;1.45;;;23.90;50.20;;;;;;5050931;28;20044;-66
2022/09/19 00:13:50;;;;;;;1.48;1.13;;;23.90;50.20;;;;;;5033915;28;20056;-66
2022/09/19 00:16:23;;;;;;;1.48;1.38;;;23.90;50.20;;;;;;5033220;28;20131;-66
2022/09/19 00:18:52;;;;;;;1.23;1.10;;;23.90;50.20;;;;;;5051478;28;20056;-65
2022/09/19 00:21:30;;;;;;;1.45;1.30;;;23.90;50.20;;;;;;5050196;28;20481;-66
2022/09/19 00:26:45;;;;;;;2.25;1.38;;;23.90;50.20;;;;;;5050746;28;20045;-66
2022/09/19 00:29:15;;;;;;;1.50;1.35;;;23.90;50.10;;;;;;5051324;28;20055;-66
2022/09/19 00:31:44;;;;;;;1.48;1.20;;;23.90;50.20;;;;;;5049060;28;20524;-66
2022/09/19 00:34:17;;;;;;;1.40;1.30;;;23.90;50.20;;;;;;5048040;28;20049;-66
2022/09/19 00:36:44;;;;;;;2.00;1.40;;;23.90;50.20;;;;;;5051125;28;20079;-65
2022/09/19 00:39:17;;;;;;;1.33;1.20;;;23.90;50.20;;;;;;5050690;28;20117;-66
2022/09/19 00:41:46;;;;;;;1.58;1.10;;;23.90;50.20;;;;;;5032862;28;20052;-65
2022/09/19 00:44:53;;;;;;;1.25;1.15;;;23.90;50.20;;;;;;5050677;28;20055;-65
2022/09/19 00:47:25;;;;;;;1.38;1.27;;;23.90;50.20;;;;;;5042762;28;20052;-66
2022/09/19 00:49:56;;;;;;;2.17;1.88;;;23.90;50.10;;;;;;5037526;28;20056;-65
2022/09/19 00:52:48;;;;;;;1.25;1.13;;;23.90;50.10;;;;;;5053786;28;20044;-65
2022/09/19 00:55:16;;;;;;;1.30;0.95;;;23.90;50.00;;;;;;5036618;28;20056;-66
2022/09/19 00:58:00;;;;;;;1.65;1.52;;;23.90;50.00;;;;;;5053838;28;20048;-65
2022/09/19 01:00:28;;;;;;;1.35;1.25;;;23.90;50.00;;;;;;5054025;28;20053;-66
2022/09/19 01:02:55;;;;;;;1.10;0.93;;;23.90;49.90;;;;;;5054278;28;20048;-66
2022/09/19 01:05:29;;;;;;;1.27;1.10;;;23.90;49.90;;;;;;5048865;28;20049;-66
2022/09/19 01:08:20;;;;;;;1.40;1.30;;;23.90;49.90;;;;;;5054002;28;20041;-66
2022/09/19 01:11:10;;;;;;;1.20;1.10;;;23.90;49.90;;;;;;5035859;28;20056;-66
2022/09/19 01:13:59;;;;;;;1.35;1.10;;;23.90;49.90;;;;;;5054096;28;20048;-66
2022/09/19 01:16:37;;;;;;;2.97;1.20;;;23.90;49.80;;;;;;5036386;28;20490;-66
2022/09/19 01:19:44;;;;;;;1.33;1.00;;;23.90;49.90;;;;;;5054089;28;20132;-66
2022/09/19 01:22:45;;;;;;;0.82;0.82;;;23.90;49.80;;;;;;5041431;28;20041;-66
2022/09/19 01:25:46;;;;;;;1.00;0.85;;;23.90;49.90;;;;;;5053747;28;20395;-65
2022/09/19 01:28:27;;;;;;;1.15;0.98;;;23.90;50.40;;;;;;5053222;28;20289;-66
2022/09/19 01:31:21;;;;;;;1.10;1.05;;;23.80;49.80;;;;;;5036022;28;20053;-66
2022/09/19 01:34:02;;;;;;;1.10;1.02;;;23.90;50.00;;;;;;5052972;28;20045;-66
2022/09/19 01:36:44;;;;;;;1.52;1.42;;;23.90;50.00;;;;;;5031043;28;20048;-66
2022/09/19 01:39:15;;;;;;;1.05;1.00;;;23.80;49.90;;;;;;5053571;28;20052;-66
2022/09/19 01:41:50;;;;;;;1.17;1.08;;;23.80;49.90;;;;;;5035328;28;20045;-66
2022/09/19 01:44:21;;;;;;;1.08;0.98;;;23.80;50.00;;;;;;5053909;28;20049;-66
2022/09/19 01:46:52;;;;;;;;;;;23.80;49.90;;;;;;5053078;28;20044;-66
2022/09/19 01:49:47;;;;;;;1.27;1.10;;;23.80;50.00;;;;;;5035949;28;19921;-65
2022/09/19 01:52:48;;;;;;;0.98;0.98;;;23.80;50.00;;;;;;5052392;28;20425;-66
2022/09/19 01:55:41;;;;;;;0.82;0.80;;;23.80;50.00;;;;;;5053383;28;20412;-64
2022/09/19 01:58:20;;;;;;;1.08;0.93;;;23.80;50.00;;;;;;5051485;28;20049;-66
2022/09/19 02:01:02;;;;;;;0.82;0.70;;;23.80;50.00;;;;;;5052492;28;20063;-62
2022/09/19 02:03:55;;;;;;;0.55;0.55;;;23.80;50.00;;;;;;5053070;28;20307;-66
2022/09/19 02:06:52;;;;;;;0.88;0.80;;;23.80;50.00;;;;;;5052476;28;20119;-66
2022/09/19 02:10:00;;;;;;;1.48;0.70;;;23.80;50.00;;;;;;5048488;28;20049;-66
2022/09/19 02:12:31;;;;;;;0.98;0.70;;;23.70;50.00;;;;;;5052117;28;20047;-65
2022/09/19 02:15:00;;;;;;;0.73;0.65;;;23.80;50.00;;;;;;5052671;28;20049;-66
2022/09/19 02:17:44;;;;;;;0.77;0.77;;;23.80;50.00;;;;;;5052314;28;20100;-65
2022/09/19 02:20:26;;;;;;;0.70;0.70;;;23.80;50.00;;;;;;5052944;28;20049;-61
2022/09/19 02:23:04;;;;;;;1.23;1.08;;;23.80;50.00;;;;;;5034096;28;20175;-66
2022/09/19 02:25:34;;;;;;;0.70;0.70;;;23.80;50.10;;;;;;5052192;28;20045;-66
2022/09/19 02:28:09;;;;;;;0.85;0.75;;;23.80;50.10;;;;;;5052629;28;20465;-66
2022/09/19 02:30:39;;;;;;;0.77;0.77;;;23.80;50.10;;;;;;5052628;28;20057;-66
2022/09/19 02:33:06;;;;;;;0.80;0.80;;;23.70;50.00;;;;;;5052258;28;20305;-66
2022/09/19 02:35:49;;;;;;;0.60;0.60;;;23.80;50.00;;;;;;5052068;28;20077;-65
2022/09/19 02:38:39;;;;;;;1.33;0.80;;;23.70;50.10;;;;;;5052707;28;20055;-66
2022/09/19 02:41:36;;;;;;;0.68;0.68;;;23.70;49.90;;;;;;5030704;28;20045;-66
2022/09/19 02:44:18;;;;;;;0.50;0.50;;;23.70;49.90;;;;;;5052335;28;20049;-65
2022/09/19 02:47:03;;;;;;;2.40;0.70;;;23.70;49.90;;;;;;5051792;28;20049;-66
2022/09/19 02:49:45;;;;;;;0.45;0.45;;;23.70;49.90;;;;;;5052330;28;20068;-66
2022/09/19 02:52:19;;;;;;;1.13;0.50;;;23.70;49.90;;;;;;5034441;28;20456;-66
2022/09/19 02:54:53;;;;;;;0.73;0.60;;;23.70;49.80;;;;;;5033988;28;20076;-66
2022/09/19 02:57:22;;;;;;;1.73;0.60;;;23.70;49.70;;;;;;5051742;28;20057;-66
2022/09/19 02:59:52;;;;;;;0.98;0.63;;;23.70;49.60;;;;;;5033953;28;20100;-66
2022/09/19 03:02:27;;;;;;;0.85;0.70;;;23.70;49.50;;;;;;5051889;28;20055;-66
2022/09/19 03:05:01;;;;;;;1.02;0.68;;;23.70;49.40;;;;;;5051534;28;20057;-66
2022/09/19 03:07:37;;;;;;;3.22;0.60;;;23.70;49.30;;;;;;5034851;28;20045;-66
2022/09/19 03:10:12;;;;;;;0.70;0.70;;;23.70;49.30;;;;;;5051446;28;20051;-62
2022/09/19 03:12:51;;;;;;;1.23;0.80;;;23.70;49.20;;;;;;5046831;28;20045;-62
2022/09/19 03:15:36;;;;;;;0.70;0.70;;;23.70;49.10;;;;;;5051525;28;20504;-66
2022/09/19 03:18:08;;;;;;;1.35;0.50;;;23.70;49.10;;;;;;5051503;28;20120;-66
2022/09/19 03:20:39;;;;;;;1.40;0.50;;;23.70;49.00;;;;;;5049915;28;20057;-65
2022/09/19 03:23:10;;;;;;;2.22;0.40;;;23.70;48.90;;;;;;5051098;28;20421;-66
2022/09/19 03:25:38;;;;;;;1.52;0.70;;;23.70;49.00;;;;;;5051249;28;20490;-65
2022/09/19 03:28:06;;;;;;;0.52;0.50;;;23.70;48.90;;;;;;5051565;28;20052;-66
2022/09/19 03:30:33;;;;;;;0.43;0.43;;;23.70;48.80;;;;;;5051189;28;20059;-62
2022/09/19 03:33:01;;;;;;;1.23;0.90;;;23.70;48.80;;;;;;5051461;28;20079;-66
2022/09/19 03:35:28;;;;;;;0.73;0.57;;;23.70;48.80;;;;;;5051068;28;20056;-66
2022/09/19 03:37:55;;;;;;;0.80;0.57;;;23.70;48.80;;;;;;5051271;28;20049;-66
2022/09/19 03:40:22;;;;;;;0.40;0.40;;;23.70;48.80;;;;;;5051630;28;20053;-62
2022/09/19 03:42:52;;;;;;;1.15;0.50;;;23.70;48.70;;;;;;5050905;28;20040;-66
2022/09/19 03:45:19;;;;;;;;;;;23.70;48.70;;;;;;5047242;28;20053;-66
2022/09/19 03:47:47;;;;;;;5.10;0.40;;;23.70;48.70;;;;;;5033118;28;19920;-66
2022/09/19 03:50:14;;;;;;;0.82;0.50;;;23.70;48.70;;;;;;5051136;28;20049;-62
2022/09/19 03:52:41;;;;;;;0.40;0.40;;;23.70;48.70;;;;;;5050768;28;20045;-65
2022/09/19 03:55:08;;;;;;;0.75;0.73;;;23.70;48.70;;;;;;5050871;28;20257;-66
2022/09/19 03:57:38;;;;;;;0.87;0.40;;;23.70;48.70;;;;;;5051171;28;20128;-66
2022/09/19 04:00:06;;;;;;;1.08;0.38;;;23.70;48.70;;;;;;5050596;28;20055;-66
2022/09/19 04:02:34;;;;;;;1.00;0.38;;;23.70;48.70;;;;;;5050694;28;20378;-66
2022/09/19 04:05:02;;;;;;;0.32;0.32;;;23.70;48.70;;;;;;5050577;28;20049;-66
2022/09/19 04:07:29;;;;;;;0.50;0.50;;;23.70;48.70;;;;;;5050580;28;20041;-65
2022/09/19 04:09:56;;;;;;;0.40;0.30;;;23.70;48.60;;;;;;5050472;28;20313;-65
2022/09/19 04:12:24;;;;;;;0.52;0.40;;;23.70;48.60;;;;;;5050425;28;20524;-65
2022/09/19 04:14:52;;;;;;;2.28;0.80;;;23.70;48.70;;;;;;5050795;28;20049;-66
2022/09/19 04:17:19;;;;;;;0.40;0.40;;;23.70;48.60;;;;;;5045994;28;20049;-66
2022/09/19 04:19:52;;;;;;;0.30;0.30;;;23.70;48.60;;;;;;5044762;28;20501;-65
2022/09/19 04:22:20;;;;;;;0.45;0.30;;;23.70;48.60;;;;;;5048097;28;20107;-66
2022/09/19 04:24:48;;;;;;;0.55;0.55;;;23.70;48.60;;;;;;5054034;28;20174;-66
2022/09/19 04:27:15;;;;;;;0.30;0.30;;;23.70;48.60;;;;;;5052236;28;20048;-66
2022/09/19 04:29:47;;;;;;;0.45;0.40;;;23.70;48.60;;;;;;5034641;28;20077;-66
2022/09/19 04:32:15;;;;;;;2.47;0.40;;;23.70;48.60;;;;;;5034742;28;20195;-65
2022/09/19 04:34:43;;;;;;;0.85;0.35;;;23.70;48.60;;;;;;5049499;28;20049;-66
2022/09/19 04:37:14;;;;;;;0.52;0.30;;;23.60;48.50;;;;;;5054279;28;20057;-65
2022/09/19 04:39:41;;;;;;;0.50;0.47;;;23.70;48.60;;;;;;5054232;28;20084;-65
2022/09/19 04:42:09;;;;;;;1.17;0.40;;;23.70;48.60;;;;;;5022563;28;20049;-62
2022/09/19 04:44:36;;;;;;;0.77;0.40;;;23.70;48.60;;;;;;5053940;28;20049;-66
2022/09/19 04:47:06;;;;;;;0.45;0.45;;;23.70;48.60;;;;;;5034817;28;20490;-66
2022/09/19 04:49:39;;;;;;;0.40;0.40;;;23.70;48.60;;;;;;5016138;28;20045;-66
2022/09/19 04:52:12;;;;;;;0.32;0.30;;;23.70;48.50;;;;;;5033866;28;20302;-66
2022/09/19 04:54:40;;;;;;;0.43;0.30;;;23.70;48.50;;;;;;5034148;28;20065;-65
2022/09/19 04:57:08;;;;;;;1.17;0.30;;;23.70;48.60;;;;;;5035455;28;20048;-66
2022/09/19 04:59:36;;;;;;;0.40;0.40;;;23.70;48.60;;;;;;5015642;28;20045;-66
2022/09/19 05:02:05;;;;;;;7.30;0.60;;;23.70;48.50;;;;;;5037966;28;20048;-65
2022/09/19 05:04:33;;;;;;;0.85;0.60;;;23.70;48.50;;;;;;5042465;28;20049;-65
2022/09/19 05:07:02;;;;;;;0.43;0.30;;;23.70;48.50;;;;;;5033652;28;20441;-65
2022/09/19 05:09:29;;;;;;;0.73;0.40;;;23.60;48.40;;;;;;5035394;28;20041;-66
2022/09/19 05:11:56;;;;;;;0.55;0.45;;;23.60;48.50;;;;;;5040421;28;20060;-65
2022/09/19 05:14:26;;;;;;;0.63;0.50;;;23.60;48.50;;;;;;5037887;28;20045;-63
2022/09/19 05:16:54;;;;;;;2.83;0.82;;;23.60;48.50;;;;;;5050893;28;20565;-66
2022/09/19 05:23:03;;;;;;;5.45;0.73;;;23.60;48.90;;;;;;5051328;28;20586;-66
2022/09/19 05:25:35;;;;;;;1.13;0.30;;;23.60;49.00;;;;;;5033858;28;20496;-66
2022/09/19 05:28:05;;;;;;;2.00;0.57;;;23.60;49.30;;;;;;5050197;28;20037;-63
2022/09/19 05:30:33;;;;;;;0.68;0.47;;;23.60;49.40;;;;;;5034180;28;20402;-62
2022/09/19 05:33:02;;;;;;;1.67;0.63;;;23.60;49.40;;;;;;5033595;28;20049;-65
2022/09/19 05:35:31;;;;;;;1.03;0.57;;;23.60;49.40;;;;;;5030254;28;20049;-63
2022/09/19 05:38:00;;;;;;;1.85;0.70;;;23.60;49.40;;;;;;5048099;28;20056;-66
2022/09/19 05:40:27;;;;;;;1.27;0.52;;;23.60;49.50;;;;;;5057685;28;20053;-62
2022/09/19 05:43:02;;;;;;;2.78;0.65;;;23.70;49.70;;;;;;5057171;28;20558;-65
2022/09/19 05:45:29;;;;;;;1.10;0.80;;;23.70;49.90;;;;;;5057142;28;20045;-63
2022/09/19 05:48:01;;;;;;;4.13;0.85;;;23.70;50.00;;;;;;5057057;28;20063;-61
2022/09/19 05:50:29;;;;;;;0.70;0.65;;;23.70;49.80;;;;;;5039681;28;20081;-61
2022/09/19 05:55:43;;;;;;;1.75;0.65;;;23.70;49.40;;;;;;5049334;28;20047;-62
2022/09/19 05:58:42;;;;;;;1.27;0.80;;;23.70;49.40;;;;;;5050755;28;20041;-63
2022/09/19 06:01:11;;;;;;;2.15;0.90;;;23.80;49.30;;;;;;5055273;28;20049;-63
2022/09/19 06:07:29;;;;;;;1.38;0.75;;;23.80;49.10;;;;;;5037126;28;20053;-62
2022/09/19 06:09:56;;;;;;;1.23;0.68;;;23.80;49.30;;;;;;5036985;28;20050;-61
2022/09/19 06:15:54;;;;;;;6.38;1.23;;;23.90;49.30;;;;;;5033424;23;20042;-61
2022/09/19 06:18:21;;;;;;;5.57;1.27;;;23.90;49.20;;;;;;5036399;28;20053;-66
2022/09/19 06:20:48;;;;;;;4.30;1.40;;;23.90;49.00;;;;;;5036796;28;20045;-64
2022/09/19 06:23:15;;;;;;;1.08;0.68;;;24.00;49.10;;;;;;5036499;28;20060;-66
2022/09/19 06:25:42;;;;;;;3.97;0.68;;;24.00;49.10;;;;;;5036495;28;20045;-63
2022/09/19 06:29:31;;;;;;;3.22;0.80;;;24.00;49.10;;;;;;5032144;28;20045;-62
2022/09/19 06:36:18;;;;;;;2.42;1.05;;;24.10;49.00;;;;;;6161705;23;20325;-61
2022/09/19 06:38:46;;;;;;;5.82;0.95;;;24.10;48.80;;;;;;4996946;28;20050;-61
2022/09/19 06:41:15;;;;;;;3.75;1.00;;;24.10;49.40;;;;;;4997858;28;20105;-61
2022/09/19 06:43:43;;;;;;;4.53;0.73;;;24.10;48.80;;;;;;5018097;28;20046;-61
2022/09/19 06:46:10;;;;;;;2.72;0.80;;;24.20;48.70;;;;;;5016142;28;20057;-65
2022/09/19 06:48:37;;;;;;;1.55;0.80;;;24.20;48.60;;;;;;5013807;28;20050;-62
2022/09/19 06:51:05;;;;;;;4.15;1.05;;;24.20;48.40;;;;;;5016391;28;20053;-61
2022/09/19 06:53:32;;;;;;;5.25;1.35;;;24.20;48.40;;;;;;5036432;28;20105;-61
2022/09/19 06:56:00;;;;;;;1.65;0.88;;;24.20;48.50;;;;;;5021813;28;20059;-61
2022/09/19 06:58:27;;;;;;;2.58;1.20;;;24.20;48.60;;;;;;4997852;28;20477;-61
2022/09/19 07:00:55;;;;;;;2.88;0.82;;;24.20;48.70;;;;;;4995633;28;20104;-59
2022/09/19 07:03:26;;;;;;;1.75;0.55;;;24.30;48.80;;;;;;4995908;28;20430;-61
2022/09/19 07:05:56;;;;;;;3.60;1.05;;;24.30;48.70;;;;;;4994598;28;20311;-61
2022/09/19 07:08:24;;;;;;;4.03;0.90;;;24.30;48.70;;;;;;4976695;28;20081;-61
2022/09/19 07:10:51;;;;;;;0.95;0.70;;;24.30;48.70;;;;;;4992571;28;20049;-60
2022/09/19 07:13:19;;;;;;;10.15;0.93;;;24.30;48.60;;;;;;4999114;28;20045;-60
2022/09/19 07:15:46;;;;;;;2.40;0.70;;;24.40;48.60;;;;;;5000708;28;20050;-59
2022/09/19 07:18:14;;;;;;;4.15;1.13;;;24.40;48.50;;;;;;4983590;28;20445;-60
2022/09/19 07:20:41;;;;;;;1.85;0.82;;;24.40;48.40;;;;;;4987678;28;20050;-60
2022/09/19 07:23:17;;;;;;;1.75;0.90;;;24.50;48.50;;;;;;4991188;28;20057;-61
2022/09/19 07:25:44;;;;;;;4.38;0.70;;;24.50;48.50;;;;;;4991937;28;20042;-61
2022/09/19 07:28:15;;;;;;;6.32;0.90;;;24.50;48.50;;;;;;5000783;28;20050;-60
2022/09/19 07:30:43;;;;;;;4.93;0.88;;;24.50;48.60;;;;;;4993971;28;20053;-59
2022/09/19 07:33:13;;;;;;;2.30;1.05;;;24.60;48.70;;;;;;4974238;28;21142;-61
2022/09/19 07:35:41;;;;;;;5.18;1.00;;;24.60;48.80;;;;;;4980008;28;20072;-61
2022/09/19 07:38:17;;;;;;;2.90;0.82;;;24.60;48.80;;;;;;4996767;28;20050;-60
2022/09/19 07:40:45;;;;;;;2.47;1.38;;;24.60;48.60;;;;;;4996988;28;20443;-59
2022/09/19 07:43:16;;;;;;;3.30;0.90;;;24.60;48.50;;;;;;4988778;28;20054;-60
2022/09/19 07:45:46;;;;;;;6.95;0.82;;;24.70;48.50;;;;;;4996849;28;20061;-62
2022/09/19 07:48:14;;;;;;;6.65;1.55;;;24.70;48.60;;;;;;4994595;28;20046;-61
2022/09/19 07:50:43;;;;;;;6.10;0.82;;;24.70;48.80;;;;;;4980426;28;20378;-61
2022/09/19 07:53:21;;;;;;;8.07;1.58;;;24.70;49.50;;;;;;4996335;28;20046;-61
2022/09/19 07:55:51;;;;;;;31.38;5.38;;;24.70;48.80;;;;;;5008088;28;20425;-62
2022/09/19 07:58:20;;;;;;;26.50;6.50;;;24.70;48.80;;;;;;4995362;28;20072;-62
2022/09/19 08:00:49;;;;;;;23.45;6.43;;;24.70;48.80;;;;;;4995059;28;20607;-61
2022/09/19 08:03:18;;;;;;;21.63;4.18;;;24.80;48.80;;;;;;4986707;28;20409;-64
2022/09/19 08:05:49;;;;;;;10.15;3.85;;;24.80;48.60;;;;;;5000841;28;20188;-62
2022/09/19 08:08:18;;;;;;;12.13;2.95;;;24.90;48.50;;;;;;5000420;28;20141;-61
2022/09/19 08:10:45;;;;;;;6.80;2.35;;;24.90;48.30;;;;;;4998354;28;20046;-61
2022/09/19 08:13:16;;;;;;;9.70;2.50;;;24.90;48.40;;;;;;4991735;28;20755;-60
2022/09/19 08:15:44;;;;;;;10.45;2.90;;;24.90;48.50;;;;;;4981719;28;20064;-63
2022/09/19 08:18:18;;;;;;;6.70;2.63;;;24.90;48.50;;;;;;4979692;28;20456;-62
2022/09/19 08:20:48;;;;;;;10.65;1.83;;;24.90;48.70;;;;;;4996391;28;20076;-62
2022/09/19 08:23:18;;;;;;;7.25;2.15;;;24.90;48.70;;;;;;4996099;28;20100;-62
2022/09/19 08:25:46;;;;;;;8.32;1.40;;;24.90;48.80;;;;;;4997438;28;20466;-61
2022/09/19 08:28:16;;;;;;;10.57;1.80;;;24.90;48.90;;;;;;5002327;28;20404;-60
2022/09/19 08:30:45;;;;;;;10.98;2.45;;;25.00;48.90;;;;;;4998573;28;20041;-63
2022/09/19 08:33:13;;;;;;;11.05;1.38;;;25.00;48.80;;;;;;4993234;28;20145;-61
2022/09/19 08:35:41;;;;;;;15.15;1.65;;;25.00;48.70;;;;;;4984317;28;20041;-61
2022/09/19 08:38:10;;;;;;;7.07;2.08;;;25.10;48.80;;;;;;4998649;28;20064;-63
2022/09/19 08:40:56;;;;;;;10.63;1.77;;;25.10;48.70;;;;;;4987358;28;20053;-61
2022/09/19 08:43:44;;;;;;;19.98;2.15;;;25.10;48.60;;;;;;4997983;28;20152;-60
2022/09/19 08:46:18;;;;;;;13.07;1.98;;;25.10;48.70;;;;;;5002519;28;20050;-61
2022/09/19 08:49:02;;;;;;;16.58;2.22;;;25.10;48.60;;;;;;5000310;28;20085;-67
2022/09/19 08:51:42;;;;;;;14.70;2.65;;;25.10;48.50;;;;;;5002993;28;20049;-68
2022/09/19 08:54:17;;;;;;;32.47;2.65;;;25.10;48.40;;;;;;5001485;28;20038;-71
2022/09/19 08:56:44;;;;;;;18.63;2.35;;;25.10;48.40;;;;;;4983373;28;20405;-67
2022/09/19 08:59:20;;;;;;;14.52;2.63;;;25.20;48.30;;;;;;5000242;28;20061;-68
2022/09/19 09:01:48;;;;;;;14.00;3.33;;;25.20;48.40;;;;;;4992439;28;20132;-68
2022/09/19 09:04:35;;;;;;;13.20;1.60;;;25.30;48.70;;;;;;5001791;28;20045;-69
2022/09/19 09:07:18;;;;;;;15.25;1.98;;;25.20;48.80;;;;;;4994171;28;20136;-58
2022/09/19 09:10:18;;;;;;;12.95;1.83;;;25.00;49.00;;;;;;4994770;28;20073;-61
2022/09/19 09:13:08;;;;;;;15.98;1.90;;;24.80;49.50;;;;;;5000864;28;20053;-58
2022/09/19 09:16:14;;;;;;;9.80;1.88;;;24.50;50.20;;;;;;5002941;28;20417;-59
2022/09/19 09:19:09;;;;;;;5.03;1.33;;;24.30;50.80;;;;;;5003125;28;20052;-61
2022/09/19 09:22:01;;;;;;;8.15;1.17;;;24.10;51.40;;;;;;4993781;28;20048;-61
2022/09/19 09:24:37;;;;;;;11.70;1.42;;;23.80;51.70;;;;;;5005538;28;20054;-62
2022/09/19 09:27:13;;;;;;;9.15;1.35;;;23.60;52.00;;;;;;5008230;28;20056;-60
2022/09/19 09:29:45;;;;;;;8.77;1.05;;;23.50;52.30;;;;;;4990997;28;20054;-59
2022/09/19 09:32:30;;;;;;;5.20;0.80;;;23.30;52.50;;;;;;5004199;28;20490;-60
2022/09/19 09:35:04;;;;;;;3.00;1.27;;;23.10;53.00;;;;;;5003277;28;20042;-59
2022/09/19 09:37:56;;;;;;;4.90;1.05;;;23.00;53.30;;;;;;4998588;28;20402;-59
2022/09/19 09:43:26;;;;;;;8.82;1.17;;;22.80;53.90;;;;;;5000892;28;20060;-60
2022/09/19 09:45:53;;;;;;;4.78;1.85;;;22.70;54.40;;;;;;4973428;28;20056;-63
2022/09/19 09:48:33;;;;;;;5.10;0.93;;;22.70;54.60;;;;;;4994802;28;20112;-59
2022/09/19 09:51:28;;;;;;;3.28;0.88;;;22.60;54.90;;;;;;4992263;28;20058;-61
2022/09/19 09:57:16;;;;;;;5.50;0.82;;;22.50;55.20;;;;;;4996630;28;20792;-61
2022/09/19 10:06:08;;;;;;;2.30;0.68;;;22.60;55.50;;;;;;5002909;28;20497;-61
2022/09/19 10:08:59;;;;;;;2.05;0.45;;;22.60;55.70;;;;;;5004170;28;20037;-62
2022/09/19 10:11:49;;;;;;;13.02;1.70;;;22.70;55.50;;;;;;5001807;28;20053;-60
2022/09/19 10:14:38;;;;;;;2.95;0.47;;;22.70;55.30;;;;;;5010792;28;20053;-62
2022/09/19 10:17:06;;;;;;;4.32;1.02;;;22.80;55.00;;;;;;4983727;28;20216;-60
2022/09/19 10:19:41;;;;;;;4.07;0.43;;;22.80;54.80;;;;;;4982457;28;20046;-61
2022/09/19 10:22:15;;;;;;;5.07;0.88;;;22.80;54.50;;;;;;4998448;28;20493;-63
2022/09/19 10:24:55;;;;;;;3.75;0.50;;;22.90;54.30;;;;;;5005568;28;20490;-62
2022/09/19 10:27:39;;;;;;;2.13;0.50;;;22.90;54.00;;;;;;5001955;28;20045;-63
2022/09/19 10:30:19;;;;;;;2.25;0.47;;;22.90;53.50;;;;;;5000668;28;20050;-61
2022/09/19 10:32:48;;;;;;;2.95;0.70;;;23.00;53.40;;;;;;5003028;28;20042;-62
2022/09/19 10:35:31;;;;;;;3.50;0.30;;;23.00;53.40;;;;;;4999174;28;20049;-62
2022/09/19 10:38:04;;;;;;;1.60;0.50;;;22.90;53.50;;;;;;5001095;28;20049;-63
2022/09/19 10:40:32;;;;;;;2.35;0.60;;;22.90;53.50;;;;;;4997889;28;20046;-61
2022/09/19 10:43:01;;;;;;;2.30;0.50;;;23.00;53.70;;;;;;5000042;28;20793;-62
2022/09/19 10:45:36;;;;;;;2.65;0.60;;;23.00;53.60;;;;;;5003700;28;20042;-61
2022/09/19 10:48:16;;;;;;;3.78;0.60;;;23.00;53.50;;;;;;4997309;28;21299;-61
2022/09/19 10:50:45;;;;;;;;;;;23.00;53.60;;;;;;4996294;28;20072;-63
2022/09/19 10:53:24;;;;;;;1.55;0.80;;;23.00;53.50;;;;;;4996310;28;19921;-61
2022/09/19 10:55:52;;;;;;;3.80;0.40;;;23.00;53.40;;;;;;4997241;28;20050;-62
2022/09/19 10:58:28;;;;;;;4.70;1.48;;;23.00;53.40;;;;;;4996816;28;20050;-64
2022/09/19 11:01:08;;;;;;;1.92;0.88;;;23.00;53.50;;;;;;4993628;28;21738;-65
2022/09/19 11:03:39;;;;;;;3.30;0.38;;;23.00;53.50;;;;;;4993810;28;20061;-60
2022/09/19 11:06:13;;;;;;;1.73;0.50;;;22.90;53.40;;;;;;5001428;28;20137;-61
2022/09/19 11:08:44;;;;;;;2.97;0.40;;;22.90;53.40;;;;;;5000419;28;20052;-62
2022/09/19 11:11:36;;;;;;;1.77;0.40;;;22.90;53.00;;;;;;4996569;28;20045;-62
2022/09/19 11:14:22;;;;;;;2.15;0.60;;;22.90;52.70;;;;;;4976430;28;20045;-62
2022/09/19 11:17:29;;;;;;;0.43;0.30;;;23.00;52.40;;;;;;4991365;28;20049;-62
2022/09/19 11:20:31;;;;;;;0.65;0.30;;;23.00;52.20;;;;;;4996821;28;22024;-60
2022/09/19 11:23:36;;;;;;;1.65;0.40;;;23.10;52.70;;;;;;4982913;28;20058;-62
2022/09/19 11:26:29;;;;;;;0.90;0.50;;;23.10;53.60;;;;;;4997206;28;20409;-62
2022/09/19 11:29:19;;;;;;;1.60;0.40;;;23.10;53.70;;;;;;4998387;28;20060;-61
2022/09/19 11:32:13;;;;;;;3.72;0.63;;;23.20;53.40;;;;;;4996096;28;20054;-63
2022/09/19 11:35:23;;;;;;;1.38;0.40;;;23.10;53.30;;;;;;4995020;28;20060;-63
2022/09/19 11:38:32;;;;;;;3.08;0.55;;;23.10;53.30;;;;;;4994362;28;20058;-63
2022/09/19 11:41:40;;;;;;;4.32;0.68;;;23.10;53.00;;;;;;4990969;28;20113;-63
2022/09/19 11:44:33;;;;;;;0.68;0.43;;;23.10;53.10;;;;;;4994598;28;20498;-63
2022/09/19 11:47:39;;;;;;;3.85;1.10;;;23.10;52.90;;;;;;4991260;28;20058;-62
2022/09/19 11:50:37;;;;;;;1.45;0.82;;;23.10;52.80;;;;;;4998472;28;20043;-63
2022/09/19 11:53:29;;;;;;;1.85;0.80;;;23.10;52.70;;;;;;4996422;28;20057;-63
2022/09/19 11:56:27;;;;;;;4.32;0.95;;;23.10;52.50;;;;;;4999057;28;20053;-64
2022/09/19 11:59:25;;;;;;;5.93;0.90;;;23.20;52.40;;;;;;4992426;28;20114;-63
2022/09/19 12:02:20;;;;;;;3.17;0.90;;;23.20;52.30;;;;;;4993061;28;20486;-64
2022/09/19 12:05:27;;;;;;;1.17;1.08;;;23.20;52.00;;;;;;4999759;28;20057;-63
2022/09/19 12:08:27;;;;;;;2.00;0.60;;;23.20;51.90;;;;;;4999930;28;20050;-62
2022/09/19 12:11:08;;;;;;;1.08;0.88;;;23.10;51.70;;;;;;4996843;28;20056;-63
2022/09/19 12:13:46;;;;;;;0.47;0.43;;;23.10;51.70;;;;;;5000778;28;20169;-63
2022/09/19 12:16:25;;;;;;;1.77;0.93;;;23.00;51.90;;;;;;4993027;28;20054;-59
2022/09/19 12:18:58;;;;;;;2.35;0.68;;;23.00;52.20;;;;;;4996134;28;20045;-61
2022/09/19 12:21:43;;;;;;;1.25;0.40;;;23.00;52.80;;;;;;4994303;28;20053;-61
2022/09/19 12:27:15;;;;;;;;;;;23.00;53.10;;;;;;5001180;28;20057;-62
2022/09/19 12:30:08;;;;;;;2.28;0.47;;;23.10;53.00;;;;;;4995087;28;19932;-61
2022/09/19 12:33:06;;;;;;;3.22;0.88;;;23.00;53.10;;;;;;4996513;28;20050;-60
2022/09/19 12:35:50;;;;;;;2.15;0.52;;;23.10;53.10;;;;;;5005047;28;20061;-63
2022/09/19 12:38:35;;;;;;;2.90;0.50;;;23.10;53.30;;;;;;4996488;28;20050;-62
2022/09/19 12:41:41;;;;;;;1.55;0.60;;;23.10;53.40;;;;;;5001042;28;20057;-63
2022/09/19 12:44:39;;;;;;;2.05;0.68;;;23.10;53.20;;;;;;5005801;28;20060;-59
2022/09/19 12:47:41;;;;;;;1.23;0.30;;;23.10;53.40;;;;;;4999697;28;20507;-61
2022/09/19 12:50:36;;;;;;;0.80;0.50;;;23.10;53.10;;;;;;5000412;28;20069;-63
2022/09/19 12:53:23;;;;;;;11.70;0.70;;;23.10;52.60;;;;;;5003287;28;20053;-61
2022/09/19 12:56:13;;;;;;;5.07;0.73;;;23.10;52.60;;;;;;5002589;28;20069;-61
2022/09/19 12:59:05;;;;;;;4.07;0.55;;;23.10;52.80;;;;;;5002767;28;20049;-61
2022/09/19 13:01:58;;;;;;;4.07;0.75;;;23.10;53.10;;;;;;5001765;28;20042;-60
2022/09/19 13:04:46;;;;;;;4.53;0.98;;;23.10;53.00;;;;;;5001585;28;20517;-60
2022/09/19 13:07:31;;;;;;;3.05;0.60;;;23.10;52.90;;;;;;5001976;28;20046;-60
2022/09/19 13:10:26;;;;;;;2.53;0.50;;;23.10;52.90;;;;;;5003560;28;20494;-60
2022/09/19 13:13:09;;;;;;;1.13;0.30;;;23.10;52.80;;;;;;4997517;28;20438;-60
2022/09/19 13:15:56;;;;;;;1.80;0.60;;;23.10;52.60;;;;;;4995663;28;20049;-60
2022/09/19 13:24:05;;;;;;;0.52;0.38;;;23.10;52.50;;;;;;4989880;28;20042;-61
2022/09/19 13:26:36;;;;;;;3.88;1.23;;;23.10;51.10;;;;;;4999997;28;20052;-60
2022/09/19 13:29:29;;;;;;;1.13;0.88;;;23.00;48.90;;;;;;4996276;28;20066;-60
2022/09/19 13:31:59;;;;;;;0.35;0.20;;;23.00;50.10;;;;;;4998769;28;20494;-60
2022/09/19 13:35:14;;;;;;;0.47;0.10;;;23.00;50.70;;;;;;5005402;28;20058;-62
2022/09/19 13:37:50;;;;;;;4.63;0.20;;;23.00;51.20;;;;;;5002730;28;20742;-60
2022/09/19 13:40:41;;;;;;;2.95;0.30;;;23.00;51.40;;;;;;4998979;28;20050;-60
2022/09/19 13:43:29;;;;;;;0.32;0.13;;;23.00;51.60;;;;;;5003171;28;20049;-60
2022/09/19 13:46:15;;;;;;;3.60;0.30;;;23.00;51.70;;;;;;4997559;28;20128;-64
2022/09/19 13:49:07;;;;;;;2.78;0.30;;;23.00;51.60;;;;;;5000683;28;20057;-60
2022/09/19 13:51:41;;;;;;;5.53;0.65;;;23.00;51.70;;;;;;5005750;28;20041;-61
2022/09/19 13:54:37;;;;;;;1.77;0.50;;;23.00;52.00;;;;;;5001640;28;20054;-62
2022/09/19 13:57:16;;;;;;;1.27;0.30;;;23.00;52.30;;;;;;4996014;28;20072;-61
2022/09/19 13:59:51;;;;;;;2.65;0.30;;;23.00;52.40;;;;;;4998830;28;20129;-62
2022/09/19 14:02:23;;;;;;;0.80;0.40;;;23.00;52.50;;;;;;4995103;28;20457;-62
2022/09/19 14:05:15;;;;;;;3.85;0.40;;;23.00;52.50;;;;;;4986726;28;20137;-59
2022/09/19 14:07:57;;;;;;;5.53;0.50;;;23.10;52.50;;;;;;4991949;28;20052;-62
2022/09/19 14:10:48;;;;;;;2.47;0.60;;;23.30;52.00;;;;;;5008788;28;20148;-60
2022/09/19 14:13:36;;;;;;;1.70;0.40;;;23.60;51.30;;;;;;5010104;28;20060;-61
2022/09/19 14:16:09;;;;;;;6.75;0.95;;;23.80;50.60;;;;;;5007766;28;20045;-61
2022/09/19 14:18:51;;;;;;;1.52;0.40;;;24.00;49.90;;;;;;5007936;28;20059;-63
2022/09/19 14:21:48;;;;;;;4.57;0.57;;;24.20;49.20;;;;;;5009653;28;20053;-61
2022/09/19 14:24:33;;;;;;;9.45;0.95;;;24.40;48.80;;;;;;5009639;28;20053;-60